sensor_id;sensor_type;location;lat;lon;timestamp;P1;durP1;ratioP1;P2;durP2;ratioP2
13238;SDS011;6686;51.292;4.166;2023-04-06T00:00:14;23.37;;;14.43;;
13238;SDS011;6686;51.292;4.166;2023-04-06T00:03:00;21.47;;;14.03;;
13238;SDS011;6686;51.292;4.166;2023-04-06T00:05:46;20.63;;;14.63;;
13238;SDS011;6686;51.292;4.166;2023-04-06T00:08:32;18.30;;;13.23;;
13238;SDS011;6686;51.292;4.166;2023-04-06T00:11:18;21.93;;;14.87;;
13238;SDS011;6686;51.292;4.166;2023-04-06T00:14:04;21.37;;;14.83;;
13238;SDS011;6686;51.292;4.166;2023-04-06T00:16:50;20.75;;;16.00;;
13238;SDS011;6686;51.292;4.166;2023-04-06T00:19:36;20.83;;;14.20;;
13238;SDS011;6686;51.292;4.166;2023-04-06T00:22:22;20.67;;;13.67;;
13238;SDS011;6686;51.292;4.166;2023-04-06T00:25:10;23.30;;;14.27;;
13238;SDS011;6686;51.292;4.166;2023-04-06T00:27:57;20.20;;;13.73;;
13238;SDS011;6686;51.292;4.166;2023-04-06T00:30:43;19.70;;;14.43;;
13238;SDS011;6686;51.292;4.166;2023-04-06T00:33:30;25.02;;;16.83;;
13238;SDS011;6686;51.292;4.166;2023-04-06T00:36:16;23.70;;;14.30;;
13238;SDS011;6686;51.292;4.166;2023-04-06T00:39:01;20.97;;;13.43;;
13238;SDS011;6686;51.292;4.166;2023-04-06T00:41:49;20.73;;;13.27;;
13238;SDS011;6686;51.292;4.166;2023-04-06T00:44:33;19.07;;;13.77;;
13238;SDS011;6686;51.292;4.166;2023-04-06T00:47:20;20.77;;;13.47;;
13238;SDS011;6686;51.292;4.166;2023-04-06T00:50:05;18.17;;;13.47;;
13238;SDS011;6686;51.292;4.166;2023-04-06T00:52:51;21.27;;;13.80;;
13238;SDS011;6686;51.292;4.166;2023-04-06T00:55:38;19.20;;;12.97;;
13238;SDS011;6686;51.292;4.166;2023-04-06T00:58:23;20.20;;;13.37;;
13238;SDS011;6686;51.292;4.166;2023-04-06T01:01:09;19.03;;;12.53;;
13238;SDS011;6686;51.292;4.166;2023-04-06T01:03:55;23.20;;;13.77;;
13238;SDS011;6686;51.292;4.166;2023-04-06T01:06:41;19.23;;;12.87;;
13238;SDS011;6686;51.292;4.166;2023-04-06T01:09:28;21.77;;;14.85;;
13238;SDS011;6686;51.292;4.166;2023-04-06T01:12:13;17.93;;;12.93;;
13238;SDS011;6686;51.292;4.166;2023-04-06T01:14:59;24.37;;;13.70;;
13238;SDS011;6686;51.292;4.166;2023-04-06T01:17:46;20.77;;;14.65;;
13238;SDS011;6686;51.292;4.166;2023-04-06T01:20:33;18.00;;;12.57;;
13238;SDS011;6686;51.292;4.166;2023-04-06T01:23:19;18.90;;;12.80;;
13238;SDS011;6686;51.292;4.166;2023-04-06T01:26:06;17.97;;;12.20;;
13238;SDS011;6686;51.292;4.166;2023-04-06T01:28:51;19.67;;;12.30;;
13238;SDS011;6686;51.292;4.166;2023-04-06T01:31:38;17.23;;;13.10;;
13238;SDS011;6686;51.292;4.166;2023-04-06T01:34:24;18.03;;;11.47;;
13238;SDS011;6686;51.292;4.166;2023-04-06T01:37:09;21.63;;;13.40;;
13238;SDS011;6686;51.292;4.166;2023-04-06T01:39:57;17.13;;;11.90;;
13238;SDS011;6686;51.292;4.166;2023-04-06T01:42:46;19.17;;;13.80;;
13238;SDS011;6686;51.292;4.166;2023-04-06T01:45:32;20.70;;;13.37;;
13238;SDS011;6686;51.292;4.166;2023-04-06T01:48:18;18.70;;;11.73;;
13238;SDS011;6686;51.292;4.166;2023-04-06T01:51:04;19.23;;;11.77;;
13238;SDS011;6686;51.292;4.166;2023-04-06T01:53:50;17.58;;;13.57;;
13238;SDS011;6686;51.292;4.166;2023-04-06T01:56:36;19.90;;;12.77;;
13238;SDS011;6686;51.292;4.166;2023-04-06T01:59:21;20.43;;;14.73;;
13238;SDS011;6686;51.292;4.166;2023-04-06T02:02:07;17.13;;;12.77;;
13238;SDS011;6686;51.292;4.166;2023-04-06T02:04:54;20.20;;;12.30;;
13238;SDS011;6686;51.292;4.166;2023-04-06T02:07:40;19.73;;;13.62;;
13238;SDS011;6686;51.292;4.166;2023-04-06T02:10:26;18.87;;;12.90;;
13238;SDS011;6686;51.292;4.166;2023-04-06T02:13:12;20.77;;;12.10;;
13238;SDS011;6686;51.292;4.166;2023-04-06T02:15:58;17.80;;;11.57;;
13238;SDS011;6686;51.292;4.166;2023-04-06T02:18:44;17.00;;;11.70;;
13238;SDS011;6686;51.292;4.166;2023-04-06T02:21:30;17.23;;;11.57;;
13238;SDS011;6686;51.292;4.166;2023-04-06T02:24:16;23.13;;;15.17;;
13238;SDS011;6686;51.292;4.166;2023-04-06T02:27:03;17.70;;;11.93;;
13238;SDS011;6686;51.292;4.166;2023-04-06T02:29:49;17.80;;;11.70;;
13238;SDS011;6686;51.292;4.166;2023-04-06T02:32:35;17.27;;;11.27;;
13238;SDS011;6686;51.292;4.166;2023-04-06T02:35:21;19.13;;;12.23;;
13238;SDS011;6686;51.292;4.166;2023-04-06T02:38:06;17.97;;;12.53;;
13238;SDS011;6686;51.292;4.166;2023-04-06T02:40:53;16.37;;;11.77;;
13238;SDS011;6686;51.292;4.166;2023-04-06T02:43:39;19.27;;;12.40;;
13238;SDS011;6686;51.292;4.166;2023-04-06T02:46:25;21.53;;;12.40;;
13238;SDS011;6686;51.292;4.166;2023-04-06T02:49:11;21.40;;;12.43;;
13238;SDS011;6686;51.292;4.166;2023-04-06T02:51:57;17.60;;;11.13;;
13238;SDS011;6686;51.292;4.166;2023-04-06T02:54:43;19.77;;;12.03;;
13238;SDS011;6686;51.292;4.166;2023-04-06T02:57:29;17.87;;;11.53;;
13238;SDS011;6686;51.292;4.166;2023-04-06T03:00:15;18.17;;;11.73;;
13238;SDS011;6686;51.292;4.166;2023-04-06T03:03:01;17.10;;;11.53;;
13238;SDS011;6686;51.292;4.166;2023-04-06T03:05:47;17.63;;;11.83;;
13238;SDS011;6686;51.292;4.166;2023-04-06T03:08:33;17.80;;;12.07;;
13238;SDS011;6686;51.292;4.166;2023-04-06T03:11:21;19.83;;;12.20;;
13238;SDS011;6686;51.292;4.166;2023-04-06T03:14:07;18.53;;;11.03;;
13238;SDS011;6686;51.292;4.166;2023-04-06T03:16:53;15.83;;;11.43;;
13238;SDS011;6686;51.292;4.166;2023-04-06T03:19:39;19.80;;;12.77;;
13238;SDS011;6686;51.292;4.166;2023-04-06T03:22:25;19.20;;;12.27;;
13238;SDS011;6686;51.292;4.166;2023-04-06T03:25:11;18.23;;;12.03;;
13238;SDS011;6686;51.292;4.166;2023-04-06T03:27:57;19.03;;;12.40;;
13238;SDS011;6686;51.292;4.166;2023-04-06T03:30:43;21.27;;;12.73;;
13238;SDS011;6686;51.292;4.166;2023-04-06T03:33:29;21.83;;;12.47;;
13238;SDS011;6686;51.292;4.166;2023-04-06T03:36:15;17.13;;;11.67;;
13238;SDS011;6686;51.292;4.166;2023-04-06T03:39:01;19.03;;;11.93;;
13238;SDS011;6686;51.292;4.166;2023-04-06T03:41:47;20.50;;;11.53;;
13238;SDS011;6686;51.292;4.166;2023-04-06T03:44:32;20.30;;;13.17;;
13238;SDS011;6686;51.292;4.166;2023-04-06T03:47:18;19.47;;;12.97;;
13238;SDS011;6686;51.292;4.166;2023-04-06T03:50:04;17.63;;;12.40;;
13238;SDS011;6686;51.292;4.166;2023-04-06T03:52:50;21.93;;;12.80;;
13238;SDS011;6686;51.292;4.166;2023-04-06T03:55:36;21.17;;;12.83;;
13238;SDS011;6686;51.292;4.166;2023-04-06T03:58:22;17.60;;;12.33;;
13238;SDS011;6686;51.292;4.166;2023-04-06T04:01:08;19.80;;;13.17;;
13238;SDS011;6686;51.292;4.166;2023-04-06T04:03:54;22.97;;;12.83;;
13238;SDS011;6686;51.292;4.166;2023-04-06T04:06:40;22.23;;;13.00;;
13238;SDS011;6686;51.292;4.166;2023-04-06T04:09:26;19.63;;;13.67;;
13238;SDS011;6686;51.292;4.166;2023-04-06T04:12:11;20.17;;;12.87;;
13238;SDS011;6686;51.292;4.166;2023-04-06T04:14:57;22.50;;;13.07;;
13238;SDS011;6686;51.292;4.166;2023-04-06T04:17:44;19.93;;;13.73;;
13238;SDS011;6686;51.292;4.166;2023-04-06T04:20:33;21.20;;;13.23;;
13238;SDS011;6686;51.292;4.166;2023-04-06T04:23:19;21.83;;;13.40;;
13238;SDS011;6686;51.292;4.166;2023-04-06T04:26:07;24.80;;;15.10;;
13238;SDS011;6686;51.292;4.166;2023-04-06T04:28:54;21.63;;;14.10;;
13238;SDS011;6686;51.292;4.166;2023-04-06T04:31:40;22.00;;;14.17;;
13238;SDS011;6686;51.292;4.166;2023-04-06T04:34:26;21.40;;;14.37;;
13238;SDS011;6686;51.292;4.166;2023-04-06T04:37:12;20.80;;;14.20;;
13238;SDS011;6686;51.292;4.166;2023-04-06T04:39:58;24.00;;;15.07;;
13238;SDS011;6686;51.292;4.166;2023-04-06T04:42:43;24.73;;;15.60;;
13238;SDS011;6686;51.292;4.166;2023-04-06T04:45:30;23.63;;;14.87;;
13238;SDS011;6686;51.292;4.166;2023-04-06T04:48:16;20.87;;;15.53;;
13238;SDS011;6686;51.292;4.166;2023-04-06T04:51:03;24.75;;;18.85;;
13238;SDS011;6686;51.292;4.166;2023-04-06T04:53:48;24.63;;;17.80;;
13238;SDS011;6686;51.292;4.166;2023-04-06T04:56:33;21.00;;;14.70;;
13238;SDS011;6686;51.292;4.166;2023-04-06T04:59:20;22.20;;;15.67;;
13238;SDS011;6686;51.292;4.166;2023-04-06T05:02:06;22.60;;;14.57;;
13238;SDS011;6686;51.292;4.166;2023-04-06T05:04:52;28.37;;;16.00;;
13238;SDS011;6686;51.292;4.166;2023-04-06T05:07:38;24.08;;;18.45;;
13238;SDS011;6686;51.292;4.166;2023-04-06T05:10:24;27.10;;;16.50;;
13238;SDS011;6686;51.292;4.166;2023-04-06T05:13:10;23.87;;;16.00;;
13238;SDS011;6686;51.292;4.166;2023-04-06T05:15:56;27.47;;;17.40;;
13238;SDS011;6686;51.292;4.166;2023-04-06T05:18:43;30.67;;;22.50;;
13238;SDS011;6686;51.292;4.166;2023-04-06T05:21:29;28.33;;;19.47;;
13238;SDS011;6686;51.292;4.166;2023-04-06T05:24:14;24.43;;;18.63;;
13238;SDS011;6686;51.292;4.166;2023-04-06T05:27:01;24.40;;;17.07;;
13238;SDS011;6686;51.292;4.166;2023-04-06T05:29:46;25.60;;;18.10;;
13238;SDS011;6686;51.292;4.166;2023-04-06T05:32:32;27.37;;;17.37;;
13238;SDS011;6686;51.292;4.166;2023-04-06T05:35:18;24.57;;;17.70;;
13238;SDS011;6686;51.292;4.166;2023-04-06T05:38:07;26.00;;;16.87;;
13238;SDS011;6686;51.292;4.166;2023-04-06T05:40:50;23.10;;;16.93;;
13238;SDS011;6686;51.292;4.166;2023-04-06T05:43:39;25.57;;;17.67;;
13238;SDS011;6686;51.292;4.166;2023-04-06T05:46:25;26.27;;;17.40;;
13238;SDS011;6686;51.292;4.166;2023-04-06T05:49:12;27.20;;;20.60;;
13238;SDS011;6686;51.292;4.166;2023-04-06T05:51:57;31.17;;;19.33;;
13238;SDS011;6686;51.292;4.166;2023-04-06T05:54:46;28.47;;;19.27;;
13238;SDS011;6686;51.292;4.166;2023-04-06T05:57:32;25.37;;;18.43;;
13238;SDS011;6686;51.292;4.166;2023-04-06T06:00:18;29.35;;;22.27;;
13238;SDS011;6686;51.292;4.166;2023-04-06T06:03:04;26.90;;;19.50;;
13238;SDS011;6686;51.292;4.166;2023-04-06T06:05:50;29.87;;;20.50;;
13238;SDS011;6686;51.292;4.166;2023-04-06T06:08:36;33.03;;;20.10;;
13238;SDS011;6686;51.292;4.166;2023-04-06T06:11:22;34.50;;;23.90;;
13238;SDS011;6686;51.292;4.166;2023-04-06T06:14:08;29.53;;;20.37;;
13238;SDS011;6686;51.292;4.166;2023-04-06T06:16:54;31.77;;;20.87;;
13238;SDS011;6686;51.292;4.166;2023-04-06T06:19:40;28.07;;;19.87;;
13238;SDS011;6686;51.292;4.166;2023-04-06T06:22:25;28.37;;;20.67;;
13238;SDS011;6686;51.292;4.166;2023-04-06T06:25:11;30.10;;;22.50;;
13238;SDS011;6686;51.292;4.166;2023-04-06T06:27:58;30.90;;;21.40;;
13238;SDS011;6686;51.292;4.166;2023-04-06T06:30:43;30.23;;;21.17;;
13238;SDS011;6686;51.292;4.166;2023-04-06T06:33:29;32.30;;;21.83;;
13238;SDS011;6686;51.292;4.166;2023-04-06T06:36:17;33.88;;;25.92;;
13238;SDS011;6686;51.292;4.166;2023-04-06T06:39:02;34.00;;;23.20;;
13238;SDS011;6686;51.292;4.166;2023-04-06T06:41:48;33.80;;;21.50;;
13238;SDS011;6686;51.292;4.166;2023-04-06T06:44:35;33.13;;;22.53;;
13238;SDS011;6686;51.292;4.166;2023-04-06T06:47:20;29.33;;;20.10;;
13238;SDS011;6686;51.292;4.166;2023-04-06T06:50:07;32.30;;;24.65;;
13238;SDS011;6686;51.292;4.166;2023-04-06T06:52:53;27.97;;;21.30;;
13238;SDS011;6686;51.292;4.166;2023-04-06T06:55:39;28.60;;;20.67;;
13238;SDS011;6686;51.292;4.166;2023-04-06T06:58:26;29.90;;;20.03;;
13238;SDS011;6686;51.292;4.166;2023-04-06T07:01:12;27.77;;;19.50;;
13238;SDS011;6686;51.292;4.166;2023-04-06T07:03:58;28.43;;;20.37;;
13238;SDS011;6686;51.292;4.166;2023-04-06T07:06:44;29.73;;;19.67;;
13238;SDS011;6686;51.292;4.166;2023-04-06T07:09:31;31.00;;;20.93;;
13238;SDS011;6686;51.292;4.166;2023-04-06T07:12:17;33.80;;;20.90;;
13238;SDS011;6686;51.292;4.166;2023-04-06T07:15:03;31.30;;;23.62;;
13238;SDS011;6686;51.292;4.166;2023-04-06T07:17:49;23.47;;;18.63;;
13238;SDS011;6686;51.292;4.166;2023-04-06T07:20:34;23.97;;;18.00;;
13238;SDS011;6686;51.292;4.166;2023-04-06T07:23:20;22.27;;;16.30;;
13238;SDS011;6686;51.292;4.166;2023-04-06T07:26:06;21.53;;;15.83;;
13238;SDS011;6686;51.292;4.166;2023-04-06T07:28:52;25.17;;;16.50;;
13238;SDS011;6686;51.292;4.166;2023-04-06T07:31:38;21.87;;;15.50;;
13238;SDS011;6686;51.292;4.166;2023-04-06T07:34:24;22.50;;;14.67;;
13238;SDS011;6686;51.292;4.166;2023-04-06T07:37:10;19.60;;;13.97;;
13238;SDS011;6686;51.292;4.166;2023-04-06T07:39:56;21.53;;;15.03;;
13238;SDS011;6686;51.292;4.166;2023-04-06T07:42:42;22.23;;;14.23;;
13238;SDS011;6686;51.292;4.166;2023-04-06T07:45:27;19.00;;;13.90;;
13238;SDS011;6686;51.292;4.166;2023-04-06T07:48:21;20.37;;;15.63;;
13238;SDS011;6686;51.292;4.166;2023-04-06T07:51:07;18.57;;;14.03;;
13238;SDS011;6686;51.292;4.166;2023-04-06T07:53:52;18.77;;;12.60;;
13238;SDS011;6686;51.292;4.166;2023-04-06T07:56:38;17.77;;;11.47;;
13238;SDS011;6686;51.292;4.166;2023-04-06T07:59:24;16.77;;;12.17;;
13238;SDS011;6686;51.292;4.166;2023-04-06T08:02:10;15.43;;;11.30;;
13238;SDS011;6686;51.292;4.166;2023-04-06T08:04:56;16.30;;;11.13;;
13238;SDS011;6686;51.292;4.166;2023-04-06T08:07:42;15.53;;;11.20;;
13238;SDS011;6686;51.292;4.166;2023-04-06T08:10:28;14.73;;;9.87;;
13238;SDS011;6686;51.292;4.166;2023-04-06T08:13:14;15.93;;;10.43;;
13238;SDS011;6686;51.292;4.166;2023-04-06T08:16:01;15.00;;;11.07;;
13238;SDS011;6686;51.292;4.166;2023-04-06T08:18:46;14.73;;;10.07;;
13238;SDS011;6686;51.292;4.166;2023-04-06T08:21:32;15.97;;;10.60;;
13238;SDS011;6686;51.292;4.166;2023-04-06T08:24:18;14.63;;;9.73;;
13238;SDS011;6686;51.292;4.166;2023-04-06T08:27:05;12.97;;;9.43;;
13238;SDS011;6686;51.292;4.166;2023-04-06T08:29:51;12.43;;;9.13;;
13238;SDS011;6686;51.292;4.166;2023-04-06T08:32:37;11.93;;;8.77;;
13238;SDS011;6686;51.292;4.166;2023-04-06T08:35:26;12.20;;;8.97;;
13238;SDS011;6686;51.292;4.166;2023-04-06T08:38:11;16.00;;;9.03;;
13238;SDS011;6686;51.292;4.166;2023-04-06T08:40:57;12.53;;;8.63;;
13238;SDS011;6686;51.292;4.166;2023-04-06T08:43:44;10.37;;;8.33;;
13238;SDS011;6686;51.292;4.166;2023-04-06T08:46:29;10.80;;;8.23;;
13238;SDS011;6686;51.292;4.166;2023-04-06T08:49:15;16.10;;;9.27;;
13238;SDS011;6686;51.292;4.166;2023-04-06T08:52:00;10.60;;;7.77;;
13238;SDS011;6686;51.292;4.166;2023-04-06T08:54:47;10.47;;;8.20;;
13238;SDS011;6686;51.292;4.166;2023-04-06T08:57:32;11.97;;;8.03;;
13238;SDS011;6686;51.292;4.166;2023-04-06T09:00:18;12.53;;;8.30;;
13238;SDS011;6686;51.292;4.166;2023-04-06T09:03:04;10.63;;;7.93;;
13238;SDS011;6686;51.292;4.166;2023-04-06T09:05:49;10.40;;;7.23;;
13238;SDS011;6686;51.292;4.166;2023-04-06T09:08:37;11.17;;;7.87;;
13238;SDS011;6686;51.292;4.166;2023-04-06T09:11:22;11.00;;;8.23;;
13238;SDS011;6686;51.292;4.166;2023-04-06T09:14:08;10.23;;;7.57;;
13238;SDS011;6686;51.292;4.166;2023-04-06T09:16:54;12.67;;;8.23;;
13238;SDS011;6686;51.292;4.166;2023-04-06T09:19:53;12.67;;;7.67;;
13238;SDS011;6686;51.292;4.166;2023-04-06T09:22:39;10.33;;;7.13;;
13238;SDS011;6686;51.292;4.166;2023-04-06T09:28:03;9.77;;;7.83;;
13238;SDS011;6686;51.292;4.166;2023-04-06T09:30:48;12.43;;;8.73;;
13238;SDS011;6686;51.292;4.166;2023-04-06T09:33:36;11.27;;;8.23;;
13238;SDS011;6686;51.292;4.166;2023-04-06T09:36:29;9.67;;;7.97;;
13238;SDS011;6686;51.292;4.166;2023-04-06T09:39:15;9.53;;;7.60;;
13238;SDS011;6686;51.292;4.166;2023-04-06T09:42:01;11.30;;;7.27;;
13238;SDS011;6686;51.292;4.166;2023-04-06T09:44:47;10.97;;;7.33;;
13238;SDS011;6686;51.292;4.166;2023-04-06T09:47:33;12.10;;;8.23;;
13238;SDS011;6686;51.292;4.166;2023-04-06T09:50:19;10.13;;;7.80;;
13238;SDS011;6686;51.292;4.166;2023-04-06T09:53:04;11.27;;;7.90;;
13238;SDS011;6686;51.292;4.166;2023-04-06T09:55:52;12.30;;;8.30;;
13238;SDS011;6686;51.292;4.166;2023-04-06T09:58:37;16.07;;;9.93;;
13238;SDS011;6686;51.292;4.166;2023-04-06T10:01:23;11.70;;;9.03;;
13238;SDS011;6686;51.292;4.166;2023-04-06T10:04:13;11.87;;;8.73;;
13238;SDS011;6686;51.292;4.166;2023-04-06T10:07:00;14.27;;;9.00;;
13238;SDS011;6686;51.292;4.166;2023-04-06T10:09:46;13.00;;;9.30;;
13238;SDS011;6686;51.292;4.166;2023-04-06T10:12:32;13.40;;;9.90;;
13238;SDS011;6686;51.292;4.166;2023-04-06T10:15:18;14.73;;;11.37;;
13238;SDS011;6686;51.292;4.166;2023-04-06T10:18:04;15.97;;;9.83;;
13238;SDS011;6686;51.292;4.166;2023-04-06T10:20:55;13.50;;;10.47;;
13238;SDS011;6686;51.292;4.166;2023-04-06T10:23:46;14.97;;;10.80;;
13238;SDS011;6686;51.292;4.166;2023-04-06T10:26:31;15.00;;;9.93;;
13238;SDS011;6686;51.292;4.166;2023-04-06T10:29:17;15.03;;;10.63;;
13238;SDS011;6686;51.292;4.166;2023-04-06T10:32:03;15.40;;;10.27;;
13238;SDS011;6686;51.292;4.166;2023-04-06T10:34:49;15.07;;;10.33;;
13238;SDS011;6686;51.292;4.166;2023-04-06T10:37:51;17.10;;;10.87;;
13238;SDS011;6686;51.292;4.166;2023-04-06T10:40:39;14.70;;;9.63;;
13238;SDS011;6686;51.292;4.166;2023-04-06T10:43:25;14.33;;;9.93;;
13238;SDS011;6686;51.292;4.166;2023-04-06T10:46:10;15.90;;;10.17;;
13238;SDS011;6686;51.292;4.166;2023-04-06T10:48:56;13.23;;;9.90;;
13238;SDS011;6686;51.292;4.166;2023-04-06T10:51:43;11.97;;;8.80;;
13238;SDS011;6686;51.292;4.166;2023-04-06T10:54:28;16.63;;;9.97;;
13238;SDS011;6686;51.292;4.166;2023-04-06T10:57:15;17.70;;;10.07;;
13238;SDS011;6686;51.292;4.166;2023-04-06T11:00:01;16.23;;;10.37;;
13238;SDS011;6686;51.292;4.166;2023-04-06T11:02:46;16.47;;;10.67;;
13238;SDS011;6686;51.292;4.166;2023-04-06T11:05:36;14.27;;;11.07;;
13238;SDS011;6686;51.292;4.166;2023-04-06T11:08:22;13.87;;;10.00;;
13238;SDS011;6686;51.292;4.166;2023-04-06T11:11:17;15.47;;;10.50;;
13238;SDS011;6686;51.292;4.166;2023-04-06T11:14:02;15.97;;;10.37;;
13238;SDS011;6686;51.292;4.166;2023-04-06T11:16:48;12.90;;;10.10;;
13238;SDS011;6686;51.292;4.166;2023-04-06T11:19:34;18.43;;;11.97;;
13238;SDS011;6686;51.292;4.166;2023-04-06T11:22:20;13.67;;;11.17;;
13238;SDS011;6686;51.292;4.166;2023-04-06T11:25:06;16.63;;;11.30;;
13238;SDS011;6686;51.292;4.166;2023-04-06T11:27:52;15.70;;;11.10;;
13238;SDS011;6686;51.292;4.166;2023-04-06T11:30:38;18.83;;;11.90;;
13238;SDS011;6686;51.292;4.166;2023-04-06T11:33:26;17.57;;;12.10;;
13238;SDS011;6686;51.292;4.166;2023-04-06T11:36:12;17.07;;;11.60;;
13238;SDS011;6686;51.292;4.166;2023-04-06T11:38:59;16.93;;;12.83;;
13238;SDS011;6686;51.292;4.166;2023-04-06T11:42:01;17.50;;;12.77;;
13238;SDS011;6686;51.292;4.166;2023-04-06T11:44:49;15.53;;;10.97;;
13238;SDS011;6686;51.292;4.166;2023-04-06T11:47:34;16.50;;;12.17;;
13238;SDS011;6686;51.292;4.166;2023-04-06T11:50:18;16.87;;;12.47;;
13238;SDS011;6686;51.292;4.166;2023-04-06T11:53:04;15.57;;;10.87;;
13238;SDS011;6686;51.292;4.166;2023-04-06T11:55:50;18.67;;;14.25;;
13238;SDS011;6686;51.292;4.166;2023-04-06T11:58:36;16.00;;;12.37;;
13238;SDS011;6686;51.292;4.166;2023-04-06T12:01:22;16.80;;;13.13;;
13238;SDS011;6686;51.292;4.166;2023-04-06T12:04:10;16.17;;;11.53;;
13238;SDS011;6686;51.292;4.166;2023-04-06T12:06:56;17.47;;;13.97;;
13238;SDS011;6686;51.292;4.166;2023-04-06T12:09:42;15.83;;;12.80;;
13238;SDS011;6686;51.292;4.166;2023-04-06T12:12:28;20.33;;;11.63;;
13238;SDS011;6686;51.292;4.166;2023-04-06T12:15:13;14.03;;;10.70;;
13238;SDS011;6686;51.292;4.166;2023-04-06T12:17:59;15.40;;;11.23;;
13238;SDS011;6686;51.292;4.166;2023-04-06T12:20:45;18.00;;;11.53;;
13238;SDS011;6686;51.292;4.166;2023-04-06T12:23:31;14.90;;;11.20;;
13238;SDS011;6686;51.292;4.166;2023-04-06T12:26:17;16.05;;;13.40;;
13238;SDS011;6686;51.292;4.166;2023-04-06T12:29:03;16.00;;;13.40;;
13238;SDS011;6686;51.292;4.166;2023-04-06T12:31:52;15.17;;;10.47;;
13238;SDS011;6686;51.292;4.166;2023-04-06T12:34:38;13.17;;;9.83;;
13238;SDS011;6686;51.292;4.166;2023-04-06T12:37:23;11.80;;;9.13;;
13238;SDS011;6686;51.292;4.166;2023-04-06T12:40:10;11.63;;;8.83;;
13238;SDS011;6686;51.292;4.166;2023-04-06T12:42:56;11.20;;;9.23;;
13238;SDS011;6686;51.292;4.166;2023-04-06T12:45:41;12.07;;;9.27;;
13238;SDS011;6686;51.292;4.166;2023-04-06T12:48:27;11.27;;;8.73;;
13238;SDS011;6686;51.292;4.166;2023-04-06T12:51:13;10.27;;;8.67;;
13238;SDS011;6686;51.292;4.166;2023-04-06T12:53:59;9.77;;;8.40;;
13238;SDS011;6686;51.292;4.166;2023-04-06T12:56:45;10.20;;;8.27;;
13238;SDS011;6686;51.292;4.166;2023-04-06T12:59:31;11.40;;;10.07;;
13238;SDS011;6686;51.292;4.166;2023-04-06T13:02:18;11.00;;;8.37;;
13238;SDS011;6686;51.292;4.166;2023-04-06T13:05:04;9.20;;;8.20;;
13238;SDS011;6686;51.292;4.166;2023-04-06T13:07:50;9.27;;;7.97;;
13238;SDS011;6686;51.292;4.166;2023-04-06T13:10:36;9.33;;;8.33;;
13238;SDS011;6686;51.292;4.166;2023-04-06T13:13:26;11.10;;;8.00;;
13238;SDS011;6686;51.292;4.166;2023-04-06T13:16:08;12.23;;;8.10;;
13238;SDS011;6686;51.292;4.166;2023-04-06T13:18:55;11.43;;;8.53;;
13238;SDS011;6686;51.292;4.166;2023-04-06T13:21:40;10.50;;;8.67;;
13238;SDS011;6686;51.292;4.166;2023-04-06T13:24:26;9.03;;;8.10;;
13238;SDS011;6686;51.292;4.166;2023-04-06T13:27:12;9.30;;;8.13;;
13238;SDS011;6686;51.292;4.166;2023-04-06T13:29:58;11.83;;;8.70;;
13238;SDS011;6686;51.292;4.166;2023-04-06T13:32:45;11.57;;;9.37;;
13238;SDS011;6686;51.292;4.166;2023-04-06T13:35:31;10.13;;;8.80;;
13238;SDS011;6686;51.292;4.166;2023-04-06T13:38:17;12.60;;;9.90;;
13238;SDS011;6686;51.292;4.166;2023-04-06T13:41:02;13.07;;;8.93;;
13238;SDS011;6686;51.292;4.166;2023-04-06T13:43:48;12.30;;;10.63;;
13238;SDS011;6686;51.292;4.166;2023-04-06T13:46:34;12.30;;;10.37;;
13238;SDS011;6686;51.292;4.166;2023-04-06T13:49:20;12.27;;;9.73;;
13238;SDS011;6686;51.292;4.166;2023-04-06T13:52:06;11.37;;;9.37;;
13238;SDS011;6686;51.292;4.166;2023-04-06T13:54:52;12.50;;;9.93;;
13238;SDS011;6686;51.292;4.166;2023-04-06T13:57:37;13.90;;;10.20;;
13238;SDS011;6686;51.292;4.166;2023-04-06T14:00:23;13.93;;;12.43;;
13238;SDS011;6686;51.292;4.166;2023-04-06T14:03:09;15.00;;;11.07;;
13238;SDS011;6686;51.292;4.166;2023-04-06T14:05:55;13.00;;;10.50;;
13238;SDS011;6686;51.292;4.166;2023-04-06T14:08:41;12.47;;;10.70;;
13238;SDS011;6686;51.292;4.166;2023-04-06T14:11:26;15.20;;;11.60;;
13238;SDS011;6686;51.292;4.166;2023-04-06T14:14:12;15.43;;;11.77;;
13238;SDS011;6686;51.292;4.166;2023-04-06T14:16:58;14.30;;;11.30;;
13238;SDS011;6686;51.292;4.166;2023-04-06T14:19:44;17.48;;;14.15;;
13238;SDS011;6686;51.292;4.166;2023-04-06T14:22:30;12.97;;;11.53;;
13238;SDS011;6686;51.292;4.166;2023-04-06T14:25:16;16.20;;;12.67;;
13238;SDS011;6686;51.292;4.166;2023-04-06T14:28:02;15.33;;;12.10;;
13238;SDS011;6686;51.292;4.166;2023-04-06T14:30:48;16.07;;;11.87;;
13238;SDS011;6686;51.292;4.166;2023-04-06T14:33:34;16.62;;;14.68;;
13238;SDS011;6686;51.292;4.166;2023-04-06T14:36:20;15.67;;;12.70;;
13238;SDS011;6686;51.292;4.166;2023-04-06T14:39:06;15.97;;;12.93;;
13238;SDS011;6686;51.292;4.166;2023-04-06T14:41:52;16.70;;;12.43;;
13238;SDS011;6686;51.292;4.166;2023-04-06T14:44:38;15.40;;;12.20;;
13238;SDS011;6686;51.292;4.166;2023-04-06T14:47:23;19.30;;;14.90;;
13238;SDS011;6686;51.292;4.166;2023-04-06T14:50:10;15.67;;;12.43;;
13238;SDS011;6686;51.292;4.166;2023-04-06T14:52:56;16.80;;;13.43;;
13238;SDS011;6686;51.292;4.166;2023-04-06T14:55:42;18.80;;;13.83;;
13238;SDS011;6686;51.292;4.166;2023-04-06T14:58:28;16.50;;;13.20;;
13238;SDS011;6686;51.292;4.166;2023-04-06T15:01:14;17.63;;;13.17;;
13238;SDS011;6686;51.292;4.166;2023-04-06T15:04:00;15.53;;;12.37;;
13238;SDS011;6686;51.292;4.166;2023-04-06T15:06:46;15.07;;;12.50;;
13238;SDS011;6686;51.292;4.166;2023-04-06T15:09:32;17.63;;;13.80;;
13238;SDS011;6686;51.292;4.166;2023-04-06T15:12:18;17.43;;;14.17;;
13238;SDS011;6686;51.292;4.166;2023-04-06T15:15:04;17.33;;;14.30;;
13238;SDS011;6686;51.292;4.166;2023-04-06T15:17:51;16.27;;;13.40;;
13238;SDS011;6686;51.292;4.166;2023-04-06T15:20:38;18.57;;;13.57;;
13238;SDS011;6686;51.292;4.166;2023-04-06T15:23:24;14.40;;;12.90;;
13238;SDS011;6686;51.292;4.166;2023-04-06T15:26:10;17.87;;;14.47;;
13238;SDS011;6686;51.292;4.166;2023-04-06T15:28:57;19.77;;;17.37;;
13238;SDS011;6686;51.292;4.166;2023-04-06T15:31:42;19.73;;;15.50;;
13238;SDS011;6686;51.292;4.166;2023-04-06T15:34:30;17.20;;;14.77;;
13238;SDS011;6686;51.292;4.166;2023-04-06T15:37:14;19.50;;;15.07;;
13238;SDS011;6686;51.292;4.166;2023-04-06T15:40:00;22.30;;;16.73;;
13238;SDS011;6686;51.292;4.166;2023-04-06T15:42:46;22.42;;;19.50;;
13238;SDS011;6686;51.292;4.166;2023-04-06T15:45:32;20.13;;;15.47;;
13238;SDS011;6686;51.292;4.166;2023-04-06T15:48:18;17.80;;;15.77;;
13238;SDS011;6686;51.292;4.166;2023-04-06T15:51:03;24.43;;;16.23;;
13238;SDS011;6686;51.292;4.166;2023-04-06T15:53:49;21.83;;;17.30;;
13238;SDS011;6686;51.292;4.166;2023-04-06T15:56:35;19.30;;;16.17;;
13238;SDS011;6686;51.292;4.166;2023-04-06T15:59:21;26.53;;;17.93;;
13238;SDS011;6686;51.292;4.166;2023-04-06T16:02:07;20.03;;;16.83;;
13238;SDS011;6686;51.292;4.166;2023-04-06T16:04:59;23.57;;;16.97;;
13238;SDS011;6686;51.292;4.166;2023-04-06T16:07:44;27.17;;;20.15;;
13238;SDS011;6686;51.292;4.166;2023-04-06T16:10:30;22.90;;;18.30;;
13238;SDS011;6686;51.292;4.166;2023-04-06T16:13:16;22.53;;;16.53;;
13238;SDS011;6686;51.292;4.166;2023-04-06T16:16:03;26.90;;;16.93;;
13238;SDS011;6686;51.292;4.166;2023-04-06T16:18:48;27.87;;;21.42;;
13238;SDS011;6686;51.292;4.166;2023-04-06T16:21:34;24.07;;;18.90;;
13238;SDS011;6686;51.292;4.166;2023-04-06T16:24:20;23.73;;;16.97;;
13238;SDS011;6686;51.292;4.166;2023-04-06T16:27:06;23.30;;;17.37;;
13238;SDS011;6686;51.292;4.166;2023-04-06T16:29:51;26.80;;;20.45;;
13238;SDS011;6686;51.292;4.166;2023-04-06T16:32:37;25.00;;;17.60;;